.
WxDataArchive / Data Records for 2009-09-17
2009-09-16 September 2009 2009-09-18

Data Records for Thursday, 17 September 2009

Time	Temp	Chill	HIndex	Humid	Dewpt	 Wind 	HiWind	WindDir	Rain 	Barom 
-----	----	-----	------	-----	-----	------	------	-------	-----	----- 
00:00	54.8	54.8	54.8	84	50.1	0	0	---	0.00	30.221 
00:05	54.5	54.5	54.5	84	49.8	0	0	---	0.00	30.221 
00:10	54.2	54.2	54.2	84	49.5	0	0	---	0.00	30.221 
00:15	53.9	53.9	53.9	85	49.5	0	0	---	0.00	30.218 
00:20	53.8	53.8	53.8	85	49.4	0	0	---	0.00	30.218 
00:25	53.6	53.6	53.6	86	49.5	0	0	---	0.00	30.218 
00:30	53.5	53.5	53.5	87	49.7	0	0	---	0.00	30.214 
00:35	53.3	53.3	53.3	87	49.5	0	0	---	0.00	30.214 
00:40	53.3	53.3	53.3	87	49.5	0	0	---	0.00	30.214 
00:45	53.2	53.2	53.2	87	49.4	0	0	---	0.00	30.213 
00:50	53.1	53.1	53.1	88	49.6	0	0	---	0.00	30.213 
00:55	52.9	52.9	52.9	88	49.4	0	0	---	0.00	30.213 
01:00	52.8	52.8	52.8	88	49.3	0	0	---	0.00	30.208 
01:05	52.6	52.6	52.6	88	49.1	0	0	---	0.00	30.208 
01:10	52.3	52.3	52.3	88	48.9	0	0	---	0.00	30.208 
01:15	52.3	52.3	52.3	89	49.2	0	0	---	0.00	30.206 
01:20	52.2	52.2	52.2	89	49.1	0	0	---	0.00	30.206 
01:25	52.2	52.2	52.2	90	49.4	0	0	---	0.00	30.206 
01:30	52.2	52.2	52.2	90	49.4	0	1	112	0.00	30.207 
01:35	52.3	52.3	52.3	90	49.5	0	1	112	0.00	30.207 
01:40	52.3	52.3	52.3	90	49.5	0	0	---	0.00	30.207 
01:45	52.3	52.3	52.3	90	49.5	0	0	---	0.00	30.200 
01:50	52.5	52.5	52.5	90	49.7	0	0	---	0.00	30.200 
01:55	52.5	52.5	52.5	90	49.7	0	0	---	0.00	30.200 
02:00	52.5	52.5	52.5	90	49.7	0	0	---	0.00	30.194 
02:05	52.5	52.5	52.5	90	49.7	0	0	---	0.00	30.194 
02:10	52.5	52.5	52.5	90	49.7	0	1	112	0.00	30.194 
02:15	52.6	52.6	52.6	90	49.7	0	0	---	0.00	30.195 
02:20	52.6	52.6	52.6	90	49.7	0	0	---	0.00	30.195 
02:25	52.6	52.6	52.6	90	49.7	0	0	---	0.00	30.195 
02:30	52.5	52.5	52.5	90	49.7	0	0	---	0.00	30.198 
02:35	52.3	52.3	52.3	90	49.5	0	0	---	0.00	30.198 
02:40	52.2	52.2	52.2	90	49.4	0	0	---	0.00	30.198 
02:45	52.0	52.0	52.0	90	49.2	0	0	---	0.00	30.201 
02:50	51.9	51.9	51.9	91	49.4	0	0	---	0.00	30.201 
02:55	51.7	51.7	51.7	91	49.2	0	0	---	0.00	30.201 
03:00	51.6	51.6	51.6	91	49.1	0	0	---	0.00	30.198 
03:05	51.6	51.6	51.6	91	49.1	0	0	---	0.00	30.198 
03:10	51.4	51.4	51.4	92	49.2	0	0	---	0.00	30.198 
03:15	51.4	51.4	51.4	92	49.2	0	0	---	0.00	30.193 
03:20	51.6	51.6	51.6	92	49.4	0	1	112	0.00	30.193 
03:25	51.6	51.6	51.6	92	49.4	0	0	---	0.00	30.193 
03:30	51.9	51.9	51.9	92	49.6	0	4	112	0.00	30.189 
03:35	52.0	52.0	52.0	92	49.7	0	2	112	0.00	30.189 
03:40	52.0	52.0	52.0	92	49.7	0	2	112	0.00	30.189 
03:45	52.2	52.2	52.2	92	49.9	0	2	112	0.00	30.189 
03:50	52.2	52.2	52.2	91	49.7	0	1	112	0.00	30.189 
03:55	52.2	52.2	52.2	91	49.7	0	2	112	0.00	30.189 
04:00	52.0	52.0	52.0	91	49.5	0	0	---	0.00	30.186 
04:05	52.0	52.0	52.0	91	49.5	0	1	112	0.00	30.186 
04:10	51.9	51.9	51.9	90	49.1	0	1	112	0.00	30.186 
04:15	51.9	51.9	51.9	90	49.1	0	2	112	0.00	30.187 
04:20	51.9	51.9	51.9	90	49.1	0	3	112	0.00	30.187 
04:25	51.9	51.9	51.9	89	48.8	0	1	112	0.00	30.187 
04:30	51.7	51.7	51.7	89	48.6	0	1	112	0.00	30.188 
04:35	51.7	51.7	51.7	89	48.6	0	0	---	0.00	30.188 
04:40	51.6	51.6	51.6	89	48.5	0	0	---	0.00	30.188 
04:45	51.4	51.4	51.4	89	48.3	0	1	112	0.00	30.193 
04:50	51.3	51.3	51.3	89	48.2	0	1	112	0.00	30.193 
04:55	51.1	51.1	51.1	89	48.0	0	0	---	0.00	30.193 
05:00	51.0	51.0	51.0	90	48.2	0	1	112	0.00	30.193 
05:05	50.8	50.8	50.8	90	48.0	0	0	---	0.00	30.193 
05:10	50.7	50.7	50.7	90	47.9	0	0	---	0.00	30.193 
05:15	50.5	50.5	50.5	90	47.7	0	0	---	0.00	30.194 
05:20	50.4	50.4	50.4	90	47.6	0	1	112	0.00	30.194 
05:25	50.4	50.4	50.4	91	47.9	0	1	112	0.00	30.194 
05:30	50.4	50.4	50.4	91	47.9	0	1	112	0.00	30.193 
05:35	50.4	50.4	50.4	91	47.9	0	1	112	0.00	30.193 
05:40	50.4	50.4	50.4	91	47.9	0	0	---	0.00	30.193 
05:45	50.2	50.2	50.2	91	47.7	0	0	---	0.00	30.194 
05:50	50.1	50.1	50.1	91	47.6	0	1	112	0.00	30.194 
05:55	50.1	50.1	50.1	91	47.6	0	0	---	0.00	30.194 
06:00	49.9	49.9	49.9	91	47.4	0	0	---	0.00	30.198 
06:05	49.8	49.8	49.8	91	47.3	0	0	---	0.00	30.198 
06:10	49.8	49.8	49.8	91	47.3	0	0	---	0.00	30.198 
06:15	49.6	49.6	49.6	91	47.1	0	1	112	0.00	30.200 
06:20	49.5	49.5	49.5	91	47.0	0	0	---	0.00	30.200 
06:25	49.4	49.4	49.4	91	46.9	0	0	---	0.00	30.200 
06:30	49.4	49.4	49.4	92	47.2	0	1	112	0.00	30.198 
06:35	49.8	49.8	49.8	92	47.6	1	5	112	0.00	30.198 
06:40	49.9	49.9	49.9	92	47.7	0	1	90	0.00	30.198 
06:45	50.1	50.1	50.1	91	47.6	0	3	112	0.00	30.198 
06:50	50.2	50.2	50.2	91	47.7	0	1	112	0.00	30.198 
06:55	50.4	50.4	50.4	91	47.9	0	1	112	0.00	30.198 
07:00	50.4	50.4	50.4	91	47.9	0	0	---	0.00	30.199 
07:05	50.4	50.4	50.4	90	47.6	0	0	---	0.00	30.199 
07:10	50.2	50.2	50.2	91	47.7	0	0	---	0.00	30.199 
07:15	50.1	50.1	50.1	91	47.6	0	1	112	0.00	30.201 
07:20	50.1	50.1	50.1	91	47.6	0	0	---	0.00	30.201 
07:25	49.9	49.9	49.9	91	47.4	0	0	---	0.00	30.201 
07:30	49.9	49.9	49.9	91	47.4	0	2	112	0.00	30.201 
07:35	50.1	50.1	50.1	91	47.6	0	1	112	0.00	30.201 
07:40	50.1	50.1	50.1	91	47.6	0	2	112	0.00	30.201 
07:45	50.1	50.1	50.1	91	47.6	0	1	112	0.00	30.204 
07:50	50.2	50.2	50.2	91	47.7	0	0	---	0.00	30.204 
07:55	50.4	50.4	50.4	92	48.2	0	1	112	0.00	30.204 
08:00	50.7	50.7	50.7	91	48.2	0	2	112	0.00	30.202 
08:05	51.1	51.1	51.1	91	48.6	0	2	112	0.00	30.202 
08:10	51.4	51.4	51.4	91	48.9	0	1	112	0.00	30.202 
08:15	51.9	51.9	51.9	91	49.4	0	3	112	0.00	30.204 
08:20	52.5	52.5	52.5	90	49.7	0	2	112	0.00	30.204 
08:25	53.1	53.1	53.1	88	49.6	0	4	135	0.00	30.204 
08:30	53.6	53.6	53.6	87	49.8	0	1	135	0.00	30.209 
08:35	54.1	54.1	54.1	86	50.0	0	1	135	0.00	30.209 
08:40	54.5	54.5	54.5	85	50.1	0	2	90	0.00	30.209 
08:45	54.8	54.8	54.8	84	50.1	0	3	90	0.00	30.208 
08:50	55.0	55.0	55.0	84	50.3	0	2	90	0.00	30.208 
08:55	55.1	55.1	55.1	85	50.7	0	2	90	0.00	30.208 
09:00	55.3	55.3	55.3	84	50.5	0	2	90	0.00	30.209 
09:05	55.6	55.6	55.6	84	50.8	0	2	68	0.00	30.209 
09:10	55.9	55.9	55.9	84	51.1	1	5	112	0.00	30.209 
09:15	56.2	56.2	56.2	84	51.4	0	3	112	0.00	30.213 
09:20	56.3	56.3	56.3	84	51.5	0	3	112	0.00	30.213 
09:25	56.6	56.6	56.6	83	51.5	1	5	112	0.00	30.213 
09:30	56.9	56.9	56.9	83	51.8	1	3	135	0.00	30.214 
09:35	57.0	57.0	57.0	82	51.6	0	4	135	0.00	30.214 
09:40	57.3	57.3	57.3	82	51.9	0	2	135	0.00	30.214 
09:45	57.8	57.8	57.8	82	52.3	0	4	135	0.00	30.218 
09:50	58.1	58.1	58.1	80	52.0	1	5	90	0.00	30.218 
09:55	58.7	58.7	58.7	79	52.2	1	3	90	0.00	30.218 
10:00	59.5	59.5	59.5	77	52.3	1	5	112	0.00	30.220 
10:05	60.2	60.2	60.2	75	52.2	2	6	112	0.00	30.220 
10:10	60.9	60.9	60.9	73	52.2	1	5	112	0.00	30.220 
10:15	61.3	61.3	61.3	73	52.6	1	4	135	0.00	30.222 
10:20	62.1	62.1	62.1	73	53.3	1	4	135	0.00	30.222 
10:25	62.6	62.6	62.6	71	53.1	2	5	112	0.00	30.222 
10:30	62.9	62.9	62.9	70	53.0	2	5	112	0.00	30.220 
10:35	63.1	63.1	63.1	70	53.2	2	4	90	0.00	30.220 
10:40	63.5	63.5	63.5	70	53.5	1	5	90	0.00	30.220 
10:45	64.0	64.0	64.0	69	53.6	1	5	135	0.00	30.216 
10:50	64.5	64.5	64.5	68	53.7	1	4	112	0.00	30.216 
10:55	65.0	65.0	65.0	66	53.4	2	4	112	0.00	30.216 
11:00	65.0	65.0	65.0	65	52.9	2	6	112	0.00	30.218 
11:05	65.3	65.3	65.3	66	53.6	2	6	112	0.00	30.218 
11:10	65.6	65.6	65.6	65	53.5	2	4	112	0.00	30.218 
11:15	66.3	66.3	66.3	64	53.7	1	7	112	0.00	30.218 
11:20	66.4	66.4	66.4	66	54.7	1	7	135	0.00	30.218 
11:25	66.6	66.6	66.6	63	53.6	1	5	158	0.00	30.218 
11:30	66.8	66.8	66.8	65	54.6	1	3	112	0.00	30.217 
11:35	67.1	67.1	67.1	65	54.9	1	4	90	0.00	30.217 
11:40	66.9	66.9	66.9	63	53.9	0	4	270	0.00	30.217 
11:45	66.9	66.9	66.9	64	54.3	1	5	112	0.00	30.216 
11:50	66.6	66.6	66.6	65	54.5	2	4	112	0.00	30.216 
11:55	66.8	66.8	66.8	64	54.2	1	4	112	0.00	30.216 
12:00	66.4	66.4	66.4	64	53.8	2	4	90	0.00	30.208 
12:05	66.4	66.4	66.4	64	53.8	1	3	112	0.00	30.208 
12:10	66.3	66.3	66.3	62	52.9	2	4	135	0.00	30.208 
12:15	67.1	67.1	67.1	64	54.5	1	4	112	0.00	30.207 
12:20	68.3	68.3	68.3	62	54.8	0	3	112	0.00	30.207 
12:25	68.6	68.6	68.6	60	54.1	1	3	90	0.00	30.207 
12:30	68.8	68.8	68.8	58	53.4	1	4	112	0.00	30.205 
12:35	68.3	68.3	68.3	57	52.5	1	4	112	0.00	30.205 
12:40	68.1	68.1	68.1	60	53.7	1	4	112	0.00	30.205 
12:45	68.1	68.1	68.1	61	54.1	0	3	112	0.00	30.200 
12:50	67.9	67.9	67.9	57	52.1	3	9	112	0.00	30.200 
12:55	68.1	68.1	68.1	59	53.2	1	4	90	0.00	30.200 
13:00	67.9	67.9	67.9	60	53.5	0	3	112	0.00	30.193 
13:05	68.3	68.3	68.3	58	52.9	1	6	112	0.00	30.193 
13:10	68.8	68.8	68.8	55	52.0	2	6	112	0.00	30.193 
13:15	69.1	69.1	69.1	55	52.2	2	4	112	0.00	30.188 
13:20	69.6	69.6	69.6	54	52.2	2	5	112	0.00	30.188 
13:25	69.9	69.9	69.9	57	54.0	1	5	68	0.00	30.188 
13:30	69.9	69.9	69.9	53	52.0	0	2	135	0.00	30.181 
13:35	69.9	69.9	69.9	53	52.0	2	6	90	0.00	30.181 
13:40	69.6	69.6	69.6	54	52.2	2	6	112	0.00	30.181 
13:45	69.9	69.9	69.9	55	53.0	1	4	112	0.00	30.180 
13:50	70.3	70.3	70.3	51	51.3	1	3	112	0.00	30.180 
13:55	70.4	70.4	70.4	51	51.4	1	6	135	0.00	30.180 
14:00	70.8	70.8	70.8	54	53.3	1	6	135	0.00	30.173 
14:05	70.6	70.6	70.6	51	51.6	2	5	90	0.00	30.173 
14:10	70.8	70.8	70.8	52	52.3	1	4	112	0.00	30.173 
14:15	70.9	70.9	70.9	53	52.9	0	2	112	0.00	30.171 
14:20	70.9	70.9	70.9	52	52.4	1	3	112	0.00	30.171 
14:25	71.3	71.3	71.3	51	52.2	0	1	112	0.00	30.171 
14:30	71.1	71.1	71.1	51	52.0	1	6	112	0.00	30.165 
14:35	71.5	71.5	71.5	53	53.5	0	3	112	0.00	30.165 
14:40	71.5	71.5	71.5	51	52.4	1	3	112	0.00	30.165 
14:45	71.1	71.1	71.1	53	53.1	1	3	112	0.00	30.160 
14:50	71.3	71.3	71.3	54	53.8	1	4	90	0.00	30.160 
14:55	71.3	71.3	71.3	48	50.6	1	4	90	0.00	30.160 
15:00	70.9	70.9	70.9	50	51.3	2	10	90	0.00	30.159 
15:05	70.9	70.9	70.9	51	51.9	1	5	112	0.00	30.159 
15:10	71.1	71.1	71.1	50	51.5	2	6	112	0.00	30.159 
15:15	71.1	71.1	71.1	51	52.0	2	5	90	0.00	30.153 
15:20	71.3	71.3	71.3	50	51.7	2	5	90	0.00	30.153 
15:25	71.3	71.3	71.3	50	51.7	2	5	90	0.00	30.153 
15:30	70.9	70.9	70.9	52	52.4	1	4	90	0.00	30.146 
15:35	71.1	71.1	71.1	52	52.6	1	3	135	0.00	30.146 
15:40	71.3	71.3	71.3	53	53.3	1	4	90	0.00	30.146 
15:45	71.3	71.3	71.3	49	51.1	2	8	112	0.00	30.143 
15:50	71.5	71.5	71.5	50	51.9	1	5	112	0.00	30.143 
15:55	71.5	71.5	71.5	51	52.4	1	3	112	0.00	30.143 
16:00	71.3	71.3	71.3	50	51.7	2	4	112	0.00	30.135 
16:05	71.5	71.5	71.5	49	51.3	0	2	112	0.00	30.135 
16:10	71.5	71.5	71.5	49	51.3	1	5	112	0.00	30.135 
16:15	71.6	71.6	71.6	49	51.4	1	4	112	0.00	30.137 
16:20	71.5	71.5	71.5	48	50.8	1	5	112	0.00	30.137 
16:25	71.5	71.5	71.5	51	52.4	0	2	112	0.00	30.137 
16:30	71.5	71.5	71.5	51	52.4	0	2	112	0.00	30.135 
16:35	71.5	71.5	71.5	47	50.2	1	5	112	0.00	30.135 
16:40	71.3	71.3	71.3	45	48.8	2	5	90	0.00	30.135 
16:45	71.3	71.3	71.3	47	50.0	1	4	112	0.00	30.139 
16:50	71.1	71.1	71.1	47	49.8	0	3	112	0.00	30.139 
16:55	70.9	70.9	70.9	46	49.1	0	2	112	0.00	30.139 
17:00	70.9	70.9	70.9	49	50.8	1	6	112	0.00	30.133 
17:05	70.9	70.9	70.9	46	49.1	1	4	90	0.00	30.133 
17:10	70.9	70.9	70.9	46	49.1	0	2	90	0.00	30.133 
17:15	70.9	70.9	70.9	48	50.2	0	3	90	0.00	30.132 
17:20	70.9	70.9	70.9	46	49.1	0	1	90	0.00	30.132 
17:25	70.9	70.9	70.9	47	49.7	0	1	90	0.00	30.132 
17:30	70.9	70.9	70.9	50	51.3	1	3	90	0.00	30.133 
17:35	70.9	70.9	70.9	50	51.3	0	3	90	0.00	30.133 
17:40	70.8	70.8	70.8	48	50.1	1	3	90	0.00	30.133 
17:45	70.8	70.8	70.8	50	51.2	0	2	90	0.00	30.136 
17:50	70.6	70.6	70.6	47	49.4	1	4	112	0.00	30.136 
17:55	70.6	70.6	70.6	49	50.5	0	1	112	0.00	30.136 
18:00	70.4	70.4	70.4	50	50.9	0	1	112	0.00	30.136 
18:05	70.4	70.4	70.4	46	48.6	0	2	112	0.00	30.136 
18:10	70.3	70.3	70.3	49	50.2	0	1	112	0.00	30.136 
18:15	70.3	70.3	70.3	48	49.7	0	2	112	0.00	30.133 
18:20	70.1	70.1	70.1	50	50.6	0	1	112	0.00	30.133 
18:25	69.9	69.9	69.9	48	49.3	0	3	112	0.00	30.133 
18:30	69.8	69.8	69.8	49	49.8	0	1	112	0.00	30.126 
18:35	69.6	69.6	69.6	50	50.1	0	1	112	0.00	30.126 
18:40	69.6	69.6	69.6	52	51.2	0	0	---	0.00	30.126 
18:45	69.4	69.4	69.4	50	49.9	0	2	112	0.00	30.123 
18:50	69.3	69.3	69.3	51	50.4	0	1	112	0.00	30.123 
18:55	69.1	69.1	69.1	53	51.2	0	0	---	0.00	30.123 
19:00	68.9	68.9	68.9	53	51.1	0	1	112	0.00	30.124 
19:05	68.6	68.6	68.6	53	50.8	0	0	---	0.00	30.124 
19:10	68.4	68.4	68.4	54	51.1	0	0	---	0.00	30.124 
19:15	68.3	68.3	68.3	54	51.0	0	0	---	0.00	30.124 
19:20	67.9	67.9	67.9	55	51.1	0	0	---	0.00	30.124 
19:25	67.6	67.6	67.6	57	51.8	0	0	---	0.00	30.124 
19:30	67.3	67.3	67.3	57	51.5	0	0	---	0.00	30.121 
19:35	66.8	66.8	66.8	58	51.5	0	1	112	0.00	30.121 
19:40	66.4	66.4	66.4	59	51.6	0	0	---	0.00	30.121 
19:45	66.1	66.1	66.1	60	51.8	0	0	---	0.00	30.119 
19:50	65.6	65.6	65.6	60	51.3	0	0	---	0.00	30.119 
19:55	65.2	65.2	65.2	61	51.4	0	0	---	0.00	30.119 
20:00	64.7	64.7	64.7	62	51.4	0	0	---	0.00	30.118 
20:05	64.2	64.2	64.2	62	50.9	0	0	---	0.00	30.118 
20:10	63.7	63.7	63.7	64	51.3	0	0	---	0.00	30.118 
20:15	63.2	63.2	63.2	65	51.2	0	0	---	0.00	30.117 
20:20	62.7	62.7	62.7	66	51.2	0	0	---	0.00	30.117 
20:25	62.3	62.3	62.3	67	51.2	0	0	---	0.00	30.117 
20:30	62.0	62.0	62.0	69	51.7	0	0	---	0.00	30.122 
20:35	61.5	61.5	61.5	70	51.6	0	0	---	0.00	30.122 
20:40	61.0	61.0	61.0	72	51.9	0	0	---	0.00	30.122 
20:45	60.5	60.5	60.5	73	51.8	0	0	---	0.00	30.131 
20:50	60.2	60.2	60.2	73	51.5	0	0	---	0.00	30.131 
20:55	59.9	59.9	59.9	74	51.6	0	0	---	0.00	30.131 
21:00	59.5	59.5	59.5	75	51.6	0	0	---	0.00	30.136 
21:05	59.3	59.3	59.3	75	51.4	0	0	---	0.00	30.136 
21:10	59.0	59.0	59.0	77	51.8	0	0	---	0.00	30.136 
21:15	58.7	58.7	58.7	77	51.5	0	0	---	0.00	30.134 
21:20	58.4	58.4	58.4	78	51.6	0	0	---	0.00	30.134 
21:25	58.3	58.3	58.3	78	51.5	0	0	---	0.00	30.134 
21:30	58.0	58.0	58.0	79	51.5	0	0	---	0.00	30.136 
21:35	57.8	57.8	57.8	80	51.7	0	0	---	0.00	30.136 
21:40	57.5	57.5	57.5	81	51.7	0	0	---	0.00	30.136 
21:45	57.3	57.3	57.3	81	51.5	0	0	---	0.00	30.142 
21:50	57.0	57.0	57.0	81	51.2	0	0	---	0.00	30.142 
21:55	56.9	56.9	56.9	82	51.5	0	0	---	0.00	30.142 
22:00	56.7	56.7	56.7	83	51.6	0	0	---	0.00	30.139 
22:05	56.5	56.5	56.5	83	51.4	0	0	---	0.00	30.139 
22:10	56.3	56.3	56.3	84	51.5	0	0	---	0.00	30.139 
22:15	56.2	56.2	56.2	84	51.4	0	0	---	0.00	30.132 
22:20	56.0	56.0	56.0	84	51.2	0	0	---	0.00	30.132 
22:25	55.9	55.9	55.9	85	51.5	0	0	---	0.00	30.132 
22:30	55.6	55.6	55.6	85	51.2	0	0	---	0.00	30.130 
22:35	55.6	55.6	55.6	86	51.5	0	0	---	0.00	30.130 
22:40	55.3	55.3	55.3	86	51.2	0	0	---	0.00	30.130 
22:45	55.1	55.1	55.1	87	51.3	0	0	---	0.00	30.128 
22:50	55.1	55.1	55.1	87	51.3	0	0	---	0.00	30.128 
22:55	55.0	55.0	55.0	87	51.2	0	0	---	0.00	30.128 
23:00	54.8	54.8	54.8	87	51.0	0	0	---	0.00	30.130 
23:05	54.7	54.7	54.7	88	51.2	0	0	---	0.00	30.130 
23:10	54.5	54.5	54.5	88	51.0	0	0	---	0.00	30.130 
23:15	54.2	54.2	54.2	88	50.7	0	0	---	0.00	30.137 
23:20	54.2	54.2	54.2	88	50.7	0	0	---	0.00	30.137 
23:25	54.2	54.2	54.2	89	51.0	0	0	---	0.00	30.137 
23:30	54.1	54.1	54.1	89	50.9	0	0	---	0.00	30.138 
23:35	53.9	53.9	53.9	89	50.7	0	0	---	0.00	30.138 
23:40	53.8	53.8	53.8	90	50.9	0	0	---	0.00	30.138 
23:45	53.6	53.6	53.6	90	50.7	0	0	---	0.00	30.141 
23:50	53.5	53.5	53.5	90	50.6	0	0	---	0.00	30.141 
23:55	53.3	53.3	53.3	90	50.4	0	0	---	0.00	30.141 

CoCoRaHS
IN-AL-39
A2 Web Hosting
Creative Commons License
GoDaddy
search engine by freefind advanced

loaded 2018-11-15 03:00:01 • last modified 2010-11-18 10:43:29
Privacy PolicyDisclaimer
• wx.awcolley.com is powered by PmWiki v.2002016 •
• all content (unless otherwise noted) © 2018 A W Colley